sensor_id;sensor_type;location;lat;lon;timestamp;P1;durP1;ratioP1;P2;durP2;ratioP2
2972;SDS011;1496;51.404;7.232;2022-11-03T00:01:33;11.53;;;3.23;;
2972;SDS011;1496;51.404;7.232;2022-11-03T00:04:01;14.23;;;2.60;;
2972;SDS011;1496;51.404;7.232;2022-11-03T00:06:27;7.27;;;2.23;;
2972;SDS011;1496;51.404;7.232;2022-11-03T00:08:53;8.63;;;3.47;;
2972;SDS011;1496;51.404;7.232;2022-11-03T00:11:22;5.90;;;2.20;;
2972;SDS011;1496;51.404;7.232;2022-11-03T00:13:48;7.53;;;2.30;;
2972;SDS011;1496;51.404;7.232;2022-11-03T00:16:13;10.50;;;3.30;;
2972;SDS011;1496;51.404;7.232;2022-11-03T00:18:40;7.97;;;2.20;;
2972;SDS011;1496;51.404;7.232;2022-11-03T00:21:06;14.23;;;2.60;;
2972;SDS011;1496;51.404;7.232;2022-11-03T00:23:34;13.23;;;2.70;;
2972;SDS011;1496;51.404;7.232;2022-11-03T00:26:15;12.23;;;2.70;;
2972;SDS011;1496;51.404;7.232;2022-11-03T00:28:42;13.93;;;2.37;;
2972;SDS011;1496;51.404;7.232;2022-11-03T00:31:10;8.60;;;3.30;;
2972;SDS011;1496;51.404;7.232;2022-11-03T00:33:37;7.47;;;2.70;;
2972;SDS011;1496;51.404;7.232;2022-11-03T00:36:06;9.03;;;2.50;;
2972;SDS011;1496;51.404;7.232;2022-11-03T00:38:35;15.07;;;2.87;;
2972;SDS011;1496;51.404;7.232;2022-11-03T00:41:02;7.13;;;2.40;;
2972;SDS011;1496;51.404;7.232;2022-11-03T00:43:31;6.63;;;2.73;;
2972;SDS011;1496;51.404;7.232;2022-11-03T00:45:58;12.23;;;2.77;;
2972;SDS011;1496;51.404;7.232;2022-11-03T00:48:24;17.83;;;3.13;;
2972;SDS011;1496;51.404;7.232;2022-11-03T00:53:31;9.20;;;2.97;;
2972;SDS011;1496;51.404;7.232;2022-11-03T00:56:26;13.67;;;2.83;;
2972;SDS011;1496;51.404;7.232;2022-11-03T00:58:53;9.27;;;3.13;;
2972;SDS011;1496;51.404;7.232;2022-11-03T01:01:23;8.27;;;2.80;;
2972;SDS011;1496;51.404;7.232;2022-11-03T01:03:52;9.23;;;2.50;;
2972;SDS011;1496;51.404;7.232;2022-11-03T01:06:38;12.03;;;3.00;;
2972;SDS011;1496;51.404;7.232;2022-11-03T01:12:02;13.73;;;2.80;;
2972;SDS011;1496;51.404;7.232;2022-11-03T01:14:34;9.80;;;2.37;;
2972;SDS011;1496;51.404;7.232;2022-11-03T01:17:29;6.63;;;1.80;;
2972;SDS011;1496;51.404;7.232;2022-11-03T01:19:56;9.33;;;2.63;;
2972;SDS011;1496;51.404;7.232;2022-11-03T01:22:22;10.87;;;3.10;;
2972;SDS011;1496;51.404;7.232;2022-11-03T01:24:48;12.30;;;3.00;;
2972;SDS011;1496;51.404;7.232;2022-11-03T01:27:16;10.30;;;3.10;;
2972;SDS011;1496;51.404;7.232;2022-11-03T01:29:44;8.03;;;2.77;;
2972;SDS011;1496;51.404;7.232;2022-11-03T01:32:11;8.80;;;3.17;;
2972;SDS011;1496;51.404;7.232;2022-11-03T01:34:43;5.93;;;2.97;;
2972;SDS011;1496;51.404;7.232;2022-11-03T01:37:11;11.40;;;3.10;;
2972;SDS011;1496;51.404;7.232;2022-11-03T01:39:41;7.97;;;3.00;;
2972;SDS011;1496;51.404;7.232;2022-11-03T01:42:11;5.43;;;2.27;;
2972;SDS011;1496;51.404;7.232;2022-11-03T01:44:45;12.53;;;2.63;;
2972;SDS011;1496;51.404;7.232;2022-11-03T01:47:27;8.47;;;2.63;;
2972;SDS011;1496;51.404;7.232;2022-11-03T01:50:05;10.93;;;3.23;;
2972;SDS011;1496;51.404;7.232;2022-11-03T01:52:45;6.33;;;2.60;;
2972;SDS011;1496;51.404;7.232;2022-11-03T01:55:16;8.10;;;2.30;;
2972;SDS011;1496;51.404;7.232;2022-11-03T01:57:48;11.17;;;2.73;;
2972;SDS011;1496;51.404;7.232;2022-11-03T02:00:23;16.03;;;2.63;;
2972;SDS011;1496;51.404;7.232;2022-11-03T02:02:49;7.13;;;3.17;;
2972;SDS011;1496;51.404;7.232;2022-11-03T02:05:17;7.47;;;3.03;;
2972;SDS011;1496;51.404;7.232;2022-11-03T02:07:52;7.50;;;2.50;;
2972;SDS011;1496;51.404;7.232;2022-11-03T02:10:34;6.43;;;2.47;;
2972;SDS011;1496;51.404;7.232;2022-11-03T02:13:24;4.40;;;2.00;;
2972;SDS011;1496;51.404;7.232;2022-11-03T02:16:19;11.43;;;3.07;;
2972;SDS011;1496;51.404;7.232;2022-11-03T02:18:49;8.10;;;2.30;;
2972;SDS011;1496;51.404;7.232;2022-11-03T02:21:32;11.40;;;2.80;;
2972;SDS011;1496;51.404;7.232;2022-11-03T02:25:12;10.30;;;2.23;;
2972;SDS011;1496;51.404;7.232;2022-11-03T02:27:36;10.87;;;2.53;;
2972;SDS011;1496;51.404;7.232;2022-11-03T02:30:20;10.63;;;2.63;;
2972;SDS011;1496;51.404;7.232;2022-11-03T02:32:57;9.47;;;2.33;;
2972;SDS011;1496;51.404;7.232;2022-11-03T02:35:32;8.73;;;2.13;;
2972;SDS011;1496;51.404;7.232;2022-11-03T02:38:04;10.40;;;2.27;;
2972;SDS011;1496;51.404;7.232;2022-11-03T02:40:35;7.47;;;2.20;;
2972;SDS011;1496;51.404;7.232;2022-11-03T02:43:05;16.53;;;3.03;;
2972;SDS011;1496;51.404;7.232;2022-11-03T02:45:34;11.30;;;2.73;;
2972;SDS011;1496;51.404;7.232;2022-11-03T02:48:00;5.53;;;2.07;;
2972;SDS011;1496;51.404;7.232;2022-11-03T02:50:32;12.53;;;3.30;;
2972;SDS011;1496;51.404;7.232;2022-11-03T02:52:58;12.03;;;2.97;;
2972;SDS011;1496;51.404;7.232;2022-11-03T02:55:31;5.60;;;2.23;;
2972;SDS011;1496;51.404;7.232;2022-11-03T03:03:49;11.57;;;3.20;;
2972;SDS011;1496;51.404;7.232;2022-11-03T03:06:33;8.60;;;2.40;;
2972;SDS011;1496;51.404;7.232;2022-11-03T03:09:13;11.27;;;2.17;;
2972;SDS011;1496;51.404;7.232;2022-11-03T03:20:27;12.00;;;2.00;;
2972;SDS011;1496;51.404;7.232;2022-11-03T03:23:18;9.33;;;2.90;;
2972;SDS011;1496;51.404;7.232;2022-11-03T03:33:20;8.93;;;2.00;;
2972;SDS011;1496;51.404;7.232;2022-11-03T03:35:48;8.70;;;2.93;;
2972;SDS011;1496;51.404;7.232;2022-11-03T03:38:22;7.77;;;2.10;;
2972;SDS011;1496;51.404;7.232;2022-11-03T03:40:52;9.10;;;2.03;;
2972;SDS011;1496;51.404;7.232;2022-11-03T03:43:21;6.30;;;2.53;;
2972;SDS011;1496;51.404;7.232;2022-11-03T03:45:50;7.00;;;2.40;;
2972;SDS011;1496;51.404;7.232;2022-11-03T03:48:20;6.70;;;2.23;;
2972;SDS011;1496;51.404;7.232;2022-11-03T03:54:21;16.20;;;2.10;;
2972;SDS011;1496;51.404;7.232;2022-11-03T04:01:12;10.83;;;3.13;;
2972;SDS011;1496;51.404;7.232;2022-11-03T04:03:39;9.43;;;2.63;;
2972;SDS011;1496;51.404;7.232;2022-11-03T04:06:05;9.87;;;2.37;;
2972;SDS011;1496;51.404;7.232;2022-11-03T04:08:30;8.30;;;2.87;;
2972;SDS011;1496;51.404;7.232;2022-11-03T04:10:56;12.60;;;3.53;;
2972;SDS011;1496;51.404;7.232;2022-11-03T04:13:40;21.93;;;3.50;;
2972;SDS011;1496;51.404;7.232;2022-11-03T04:16:25;15.50;;;2.50;;
2972;SDS011;1496;51.404;7.232;2022-11-03T04:19:15;11.93;;;3.40;;
2972;SDS011;1496;51.404;7.232;2022-11-03T04:22:21;10.90;;;2.53;;
2972;SDS011;1496;51.404;7.232;2022-11-03T04:32:31;6.53;;;2.30;;
2972;SDS011;1496;51.404;7.232;2022-11-03T04:39:39;6.40;;;2.23;;
2972;SDS011;1496;51.404;7.232;2022-11-03T04:42:49;10.23;;;2.70;;
2972;SDS011;1496;51.404;7.232;2022-11-03T04:45:31;5.87;;;2.80;;
2972;SDS011;1496;51.404;7.232;2022-11-03T04:47:59;9.60;;;1.90;;
2972;SDS011;1496;51.404;7.232;2022-11-03T04:50:27;10.97;;;2.20;;
2972;SDS011;1496;51.404;7.232;2022-11-03T04:52:54;9.13;;;3.00;;
2972;SDS011;1496;51.404;7.232;2022-11-03T04:55:21;8.60;;;2.80;;
2972;SDS011;1496;51.404;7.232;2022-11-03T05:01:05;9.27;;;2.37;;
2972;SDS011;1496;51.404;7.232;2022-11-03T05:04:27;6.17;;;2.20;;
2972;SDS011;1496;51.404;7.232;2022-11-03T05:06:55;14.97;;;2.47;;
2972;SDS011;1496;51.404;7.232;2022-11-03T05:09:24;6.97;;;2.97;;
2972;SDS011;1496;51.404;7.232;2022-11-03T05:11:52;7.30;;;2.30;;
2972;SDS011;1496;51.404;7.232;2022-11-03T05:14:20;9.87;;;2.60;;
2972;SDS011;1496;51.404;7.232;2022-11-03T05:17:23;10.53;;;2.17;;
2972;SDS011;1496;51.404;7.232;2022-11-03T05:26:19;9.20;;;2.30;;
2972;SDS011;1496;51.404;7.232;2022-11-03T05:28:51;8.73;;;2.33;;
2972;SDS011;1496;51.404;7.232;2022-11-03T05:31:25;11.30;;;3.13;;
2972;SDS011;1496;51.404;7.232;2022-11-03T05:33:59;12.50;;;2.50;;
2972;SDS011;1496;51.404;7.232;2022-11-03T05:36:46;8.40;;;2.30;;
2972;SDS011;1496;51.404;7.232;2022-11-03T05:41:49;10.43;;;2.17;;
2972;SDS011;1496;51.404;7.232;2022-11-03T05:44:23;12.83;;;3.33;;
2972;SDS011;1496;51.404;7.232;2022-11-03T05:47:01;8.73;;;2.73;;
2972;SDS011;1496;51.404;7.232;2022-11-03T05:49:37;7.43;;;2.37;;
2972;SDS011;1496;51.404;7.232;2022-11-03T05:52:04;8.50;;;2.50;;
2972;SDS011;1496;51.404;7.232;2022-11-03T05:54:37;7.60;;;2.90;;
2972;SDS011;1496;51.404;7.232;2022-11-03T05:57:07;12.00;;;2.47;;
2972;SDS011;1496;51.404;7.232;2022-11-03T06:02:57;7.10;;;2.03;;
2972;SDS011;1496;51.404;7.232;2022-11-03T06:19:14;4.97;;;2.20;;
2972;SDS011;1496;51.404;7.232;2022-11-03T06:21:49;9.10;;;2.63;;
2972;SDS011;1496;51.404;7.232;2022-11-03T06:24:16;9.10;;;3.20;;
2972;SDS011;1496;51.404;7.232;2022-11-03T06:26:45;8.77;;;2.40;;
2972;SDS011;1496;51.404;7.232;2022-11-03T06:29:15;8.50;;;2.47;;
2972;SDS011;1496;51.404;7.232;2022-11-03T06:31:44;5.50;;;1.97;;
2972;SDS011;1496;51.404;7.232;2022-11-03T06:34:21;10.80;;;2.47;;
2972;SDS011;1496;51.404;7.232;2022-11-03T06:36:57;6.83;;;2.87;;
2972;SDS011;1496;51.404;7.232;2022-11-03T06:39:25;8.83;;;2.57;;
2972;SDS011;1496;51.404;7.232;2022-11-03T06:41:54;5.47;;;2.30;;
2972;SDS011;1496;51.404;7.232;2022-11-03T06:44:37;5.57;;;2.10;;
2972;SDS011;1496;51.404;7.232;2022-11-03T06:47:35;12.40;;;2.10;;
2972;SDS011;1496;51.404;7.232;2022-11-03T06:53:53;11.30;;;2.37;;
2972;SDS011;1496;51.404;7.232;2022-11-03T07:00:39;5.33;;;2.07;;
2972;SDS011;1496;51.404;7.232;2022-11-03T07:04:19;5.83;;;2.47;;
2972;SDS011;1496;51.404;7.232;2022-11-03T07:06:47;7.57;;;2.23;;
2972;SDS011;1496;51.404;7.232;2022-11-03T07:09:19;10.43;;;2.50;;
2972;SDS011;1496;51.404;7.232;2022-11-03T07:11:49;7.53;;;2.13;;
2972;SDS011;1496;51.404;7.232;2022-11-03T07:14:24;7.70;;;2.47;;
2972;SDS011;1496;51.404;7.232;2022-11-03T07:16:56;6.80;;;2.20;;
2972;SDS011;1496;51.404;7.232;2022-11-03T07:19:28;4.70;;;1.93;;
2972;SDS011;1496;51.404;7.232;2022-11-03T07:25:02;6.87;;;2.90;;
2972;SDS011;1496;51.404;7.232;2022-11-03T07:27:43;9.43;;;2.10;;
2972;SDS011;1496;51.404;7.232;2022-11-03T07:33:13;9.47;;;2.53;;
2972;SDS011;1496;51.404;7.232;2022-11-03T07:36:21;9.37;;;2.37;;
2972;SDS011;1496;51.404;7.232;2022-11-03T07:38:59;6.27;;;2.70;;
2972;SDS011;1496;51.404;7.232;2022-11-03T07:41:45;10.10;;;2.67;;
2972;SDS011;1496;51.404;7.232;2022-11-03T07:44:18;8.07;;;2.50;;
2972;SDS011;1496;51.404;7.232;2022-11-03T07:46:54;6.33;;;2.33;;
2972;SDS011;1496;51.404;7.232;2022-11-03T07:52:23;16.57;;;2.57;;
2972;SDS011;1496;51.404;7.232;2022-11-03T07:54:50;7.60;;;2.37;;
2972;SDS011;1496;51.404;7.232;2022-11-03T07:57:22;10.73;;;2.70;;
2972;SDS011;1496;51.404;7.232;2022-11-03T08:00:00;3.53;;;1.90;;
2972;SDS011;1496;51.404;7.232;2022-11-03T08:02:56;6.20;;;2.20;;
2972;SDS011;1496;51.404;7.232;2022-11-03T08:05:25;8.53;;;3.10;;
2972;SDS011;1496;51.404;7.232;2022-11-03T08:11:01;8.07;;;1.90;;
2972;SDS011;1496;51.404;7.232;2022-11-03T08:13:27;6.97;;;3.20;;
2972;SDS011;1496;51.404;7.232;2022-11-03T08:22:49;7.20;;;2.33;;
2972;SDS011;1496;51.404;7.232;2022-11-03T08:26:29;21.77;;;2.47;;
2972;SDS011;1496;51.404;7.232;2022-11-03T08:28:58;5.80;;;2.20;;
2972;SDS011;1496;51.404;7.232;2022-11-03T08:31:26;9.63;;;2.47;;
2972;SDS011;1496;51.404;7.232;2022-11-03T08:33:52;15.33;;;2.77;;
2972;SDS011;1496;51.404;7.232;2022-11-03T08:36:17;4.37;;;2.27;;
2972;SDS011;1496;51.404;7.232;2022-11-03T08:38:45;7.57;;;2.00;;
2972;SDS011;1496;51.404;7.232;2022-11-03T08:41:11;4.33;;;2.03;;
2972;SDS011;1496;51.404;7.232;2022-11-03T08:44:41;8.83;;;2.17;;
2972;SDS011;1496;51.404;7.232;2022-11-03T08:48:35;6.70;;;2.17;;
2972;SDS011;1496;51.404;7.232;2022-11-03T08:51:35;9.57;;;1.97;;
2972;SDS011;1496;51.404;7.232;2022-11-03T08:54:12;8.00;;;2.57;;
2972;SDS011;1496;51.404;7.232;2022-11-03T09:00:06;9.80;;;1.93;;
2972;SDS011;1496;51.404;7.232;2022-11-03T09:03:43;5.87;;;2.07;;
2972;SDS011;1496;51.404;7.232;2022-11-03T09:06:14;7.93;;;2.27;;
2972;SDS011;1496;51.404;7.232;2022-11-03T09:08:40;8.00;;;2.50;;
2972;SDS011;1496;51.404;7.232;2022-11-03T09:11:05;8.30;;;2.00;;
2972;SDS011;1496;51.404;7.232;2022-11-03T09:13:31;5.67;;;2.27;;
2972;SDS011;1496;51.404;7.232;2022-11-03T09:15:57;10.47;;;2.10;;
2972;SDS011;1496;51.404;7.232;2022-11-03T09:18:22;8.37;;;2.07;;
2972;SDS011;1496;51.404;7.232;2022-11-03T09:20:48;4.13;;;1.37;;
2972;SDS011;1496;51.404;7.232;2022-11-03T09:23:15;9.23;;;1.97;;
2972;SDS011;1496;51.404;7.232;2022-11-03T09:25:42;5.73;;;2.37;;
2972;SDS011;1496;51.404;7.232;2022-11-03T09:28:08;8.33;;;2.27;;
2972;SDS011;1496;51.404;7.232;2022-11-03T09:30:34;10.20;;;2.07;;
2972;SDS011;1496;51.404;7.232;2022-11-03T09:32:59;5.17;;;2.50;;
2972;SDS011;1496;51.404;7.232;2022-11-03T09:35:25;9.63;;;2.20;;
2972;SDS011;1496;51.404;7.232;2022-11-03T09:38:02;10.73;;;2.33;;
2972;SDS011;1496;51.404;7.232;2022-11-03T09:40:54;5.90;;;2.17;;
2972;SDS011;1496;51.404;7.232;2022-11-03T09:45:06;11.80;;;1.80;;
2972;SDS011;1496;51.404;7.232;2022-11-03T09:47:53;4.73;;;1.73;;
2972;SDS011;1496;51.404;7.232;2022-11-03T09:50:18;7.33;;;2.13;;
2972;SDS011;1496;51.404;7.232;2022-11-03T09:52:45;7.20;;;1.83;;
2972;SDS011;1496;51.404;7.232;2022-11-03T09:55:13;5.63;;;1.80;;
2972;SDS011;1496;51.404;7.232;2022-11-03T09:57:41;6.73;;;2.00;;
2972;SDS011;1496;51.404;7.232;2022-11-03T10:00:20;8.77;;;1.80;;
2972;SDS011;1496;51.404;7.232;2022-11-03T10:02:48;4.03;;;1.97;;
2972;SDS011;1496;51.404;7.232;2022-11-03T10:05:35;4.33;;;1.63;;
2972;SDS011;1496;51.404;7.232;2022-11-03T10:08:01;4.33;;;1.53;;
2972;SDS011;1496;51.404;7.232;2022-11-03T10:10:29;5.10;;;1.70;;
2972;SDS011;1496;51.404;7.232;2022-11-03T10:12:56;2.87;;;1.50;;
2972;SDS011;1496;51.404;7.232;2022-11-03T10:15:23;4.03;;;1.53;;
2972;SDS011;1496;51.404;7.232;2022-11-03T10:17:50;7.00;;;2.00;;
2972;SDS011;1496;51.404;7.232;2022-11-03T10:20:20;8.00;;;2.27;;
2972;SDS011;1496;51.404;7.232;2022-11-03T10:22:49;6.87;;;1.80;;
2972;SDS011;1496;51.404;7.232;2022-11-03T10:25:36;3.70;;;1.80;;
2972;SDS011;1496;51.404;7.232;2022-11-03T10:28:11;4.60;;;1.97;;
2972;SDS011;1496;51.404;7.232;2022-11-03T10:33:35;11.90;;;1.83;;
2972;SDS011;1496;51.404;7.232;2022-11-03T10:38:42;4.20;;;1.80;;
2972;SDS011;1496;51.404;7.232;2022-11-03T10:41:10;3.93;;;1.70;;
2972;SDS011;1496;51.404;7.232;2022-11-03T10:43:38;4.30;;;1.83;;
2972;SDS011;1496;51.404;7.232;2022-11-03T10:46:20;5.00;;;1.87;;
2972;SDS011;1496;51.404;7.232;2022-11-03T10:56:26;22.60;;;3.13;;
2972;SDS011;1496;51.404;7.232;2022-11-03T11:06:38;7.07;;;1.77;;
2972;SDS011;1496;51.404;7.232;2022-11-03T11:09:51;9.60;;;2.07;;
2972;SDS011;1496;51.404;7.232;2022-11-03T11:15:38;5.33;;;2.20;;
2972;SDS011;1496;51.404;7.232;2022-11-03T11:18:06;5.93;;;1.83;;
2972;SDS011;1496;51.404;7.232;2022-11-03T11:20:34;4.17;;;1.50;;
2972;SDS011;1496;51.404;7.232;2022-11-03T11:50:55;5.20;;;1.67;;
2972;SDS011;1496;51.404;7.232;2022-11-03T11:53:22;5.13;;;1.70;;
2972;SDS011;1496;51.404;7.232;2022-11-03T12:03:55;9.00;;;2.13;;
2972;SDS011;1496;51.404;7.232;2022-11-03T12:25:36;6.80;;;1.77;;
2972;SDS011;1496;51.404;7.232;2022-11-03T12:28:04;3.80;;;1.57;;
2972;SDS011;1496;51.404;7.232;2022-11-03T12:30:30;3.10;;;1.67;;
2972;SDS011;1496;51.404;7.232;2022-11-03T12:32:55;10.23;;;1.53;;
2972;SDS011;1496;51.404;7.232;2022-11-03T12:35:21;6.13;;;1.30;;
2972;SDS011;1496;51.404;7.232;2022-11-03T12:37:47;3.77;;;1.60;;
2972;SDS011;1496;51.404;7.232;2022-11-03T12:40:13;3.13;;;1.10;;
2972;SDS011;1496;51.404;7.232;2022-11-03T12:42:38;5.73;;;1.70;;
2972;SDS011;1496;51.404;7.232;2022-11-03T12:45:05;4.07;;;1.47;;
2972;SDS011;1496;51.404;7.232;2022-11-03T12:47:35;8.73;;;1.67;;
2972;SDS011;1496;51.404;7.232;2022-11-03T13:01:41;4.30;;;1.40;;
2972;SDS011;1496;51.404;7.232;2022-11-03T13:04:08;4.30;;;1.57;;
2972;SDS011;1496;51.404;7.232;2022-11-03T13:06:34;2.70;;;1.17;;
2972;SDS011;1496;51.404;7.232;2022-11-03T13:09:00;4.10;;;1.60;;
2972;SDS011;1496;51.404;7.232;2022-11-03T13:11:25;10.30;;;1.70;;
2972;SDS011;1496;51.404;7.232;2022-11-03T13:14:10;3.53;;;2.23;;
2972;SDS011;1496;51.404;7.232;2022-11-03T13:28:22;4.20;;;1.93;;
2972;SDS011;1496;51.404;7.232;2022-11-03T13:30:55;3.93;;;2.20;;
2972;SDS011;1496;51.404;7.232;2022-11-03T13:33:27;4.70;;;2.00;;
2972;SDS011;1496;51.404;7.232;2022-11-03T13:35:52;10.63;;;2.27;;
2972;SDS011;1496;51.404;7.232;2022-11-03T13:38:18;6.33;;;2.37;;
2972;SDS011;1496;51.404;7.232;2022-11-03T13:40:45;5.07;;;2.57;;
2972;SDS011;1496;51.404;7.232;2022-11-03T13:43:11;7.47;;;2.30;;
2972;SDS011;1496;51.404;7.232;2022-11-03T13:45:36;6.90;;;1.97;;
2972;SDS011;1496;51.404;7.232;2022-11-03T14:07:02;3.47;;;2.10;;
2972;SDS011;1496;51.404;7.232;2022-11-03T14:09:27;10.30;;;1.80;;
2972;SDS011;1496;51.404;7.232;2022-11-03T14:11:53;6.13;;;2.60;;
2972;SDS011;1496;51.404;7.232;2022-11-03T14:14:37;4.23;;;1.90;;
2972;SDS011;1496;51.404;7.232;2022-11-03T14:17:03;5.90;;;2.10;;
2972;SDS011;1496;51.404;7.232;2022-11-03T14:19:29;12.80;;;3.60;;
2972;SDS011;1496;51.404;7.232;2022-11-03T14:51:05;5.23;;;2.10;;
2972;SDS011;1496;51.404;7.232;2022-11-03T14:53:32;11.20;;;2.40;;
2972;SDS011;1496;51.404;7.232;2022-11-03T14:55:57;5.03;;;1.93;;
2972;SDS011;1496;51.404;7.232;2022-11-03T14:58:23;7.33;;;2.40;;
2972;SDS011;1496;51.404;7.232;2022-11-03T15:00:49;7.37;;;2.77;;
2972;SDS011;1496;51.404;7.232;2022-11-03T15:03:15;4.23;;;1.90;;
2972;SDS011;1496;51.404;7.232;2022-11-03T15:31:48;5.20;;;2.37;;
2972;SDS011;1496;51.404;7.232;2022-11-03T15:34:14;9.17;;;2.57;;
2972;SDS011;1496;51.404;7.232;2022-11-03T15:36:40;3.80;;;2.23;;
2972;SDS011;1496;51.404;7.232;2022-11-03T15:39:13;3.53;;;1.77;;
2972;SDS011;1496;51.404;7.232;2022-11-03T15:41:42;3.50;;;2.30;;
2972;SDS011;1496;51.404;7.232;2022-11-03T15:47:58;3.83;;;2.27;;
2972;SDS011;1496;51.404;7.232;2022-11-03T15:54:12;5.80;;;2.77;;
2972;SDS011;1496;51.404;7.232;2022-11-03T16:00:42;9.67;;;3.17;;
2972;SDS011;1496;51.404;7.232;2022-11-03T16:14:32;6.00;;;2.97;;
2972;SDS011;1496;51.404;7.232;2022-11-03T16:16:58;9.20;;;3.17;;
2972;SDS011;1496;51.404;7.232;2022-11-03T16:19:29;9.57;;;3.30;;
2972;SDS011;1496;51.404;7.232;2022-11-03T16:25:24;8.80;;;3.00;;
2972;SDS011;1496;51.404;7.232;2022-11-03T16:27:49;5.13;;;2.83;;
2972;SDS011;1496;51.404;7.232;2022-11-03T16:30:15;7.53;;;3.10;;
2972;SDS011;1496;51.404;7.232;2022-11-03T16:32:41;4.20;;;3.17;;
2972;SDS011;1496;51.404;7.232;2022-11-03T16:35:06;6.03;;;4.20;;
2972;SDS011;1496;51.404;7.232;2022-11-03T16:37:32;5.73;;;3.43;;
2972;SDS011;1496;51.404;7.232;2022-11-03T16:40:01;7.33;;;3.33;;
2972;SDS011;1496;51.404;7.232;2022-11-03T16:42:27;8.60;;;3.83;;
2972;SDS011;1496;51.404;7.232;2022-11-03T16:44:53;17.60;;;3.67;;
2972;SDS011;1496;51.404;7.232;2022-11-03T16:47:22;19.53;;;4.10;;
2972;SDS011;1496;51.404;7.232;2022-11-03T16:49:50;18.27;;;4.20;;
2972;SDS011;1496;51.404;7.232;2022-11-03T16:52:16;19.63;;;3.23;;
2972;SDS011;1496;51.404;7.232;2022-11-03T16:54:42;26.13;;;4.07;;
2972;SDS011;1496;51.404;7.232;2022-11-03T16:57:09;24.83;;;4.10;;
2972;SDS011;1496;51.404;7.232;2022-11-03T16:59:36;23.17;;;4.03;;
2972;SDS011;1496;51.404;7.232;2022-11-03T17:02:02;24.50;;;3.40;;
2972;SDS011;1496;51.404;7.232;2022-11-03T17:04:27;22.73;;;3.70;;
2972;SDS011;1496;51.404;7.232;2022-11-03T17:06:53;24.63;;;3.63;;
2972;SDS011;1496;51.404;7.232;2022-11-03T17:09:19;21.33;;;4.30;;
2972;SDS011;1496;51.404;7.232;2022-11-03T17:11:45;17.93;;;3.90;;
2972;SDS011;1496;51.404;7.232;2022-11-03T17:14:10;18.57;;;4.40;;
2972;SDS011;1496;51.404;7.232;2022-11-03T17:16:39;16.90;;;4.23;;
2972;SDS011;1496;51.404;7.232;2022-11-03T17:19:12;16.00;;;4.20;;
2972;SDS011;1496;51.404;7.232;2022-11-03T17:21:40;14.30;;;4.03;;
2972;SDS011;1496;51.404;7.232;2022-11-03T17:24:06;14.23;;;4.17;;
2972;SDS011;1496;51.404;7.232;2022-11-03T17:27:19;15.93;;;4.60;;
2972;SDS011;1496;51.404;7.232;2022-11-03T17:29:32;18.00;;;4.27;;
2972;SDS011;1496;51.404;7.232;2022-11-03T17:32:06;14.07;;;4.13;;
2972;SDS011;1496;51.404;7.232;2022-11-03T17:34:57;13.80;;;4.40;;
2972;SDS011;1496;51.404;7.232;2022-11-03T17:37:23;13.13;;;4.67;;
2972;SDS011;1496;51.404;7.232;2022-11-03T17:39:49;12.50;;;4.17;;
2972;SDS011;1496;51.404;7.232;2022-11-03T17:42:19;16.43;;;4.73;;
2972;SDS011;1496;51.404;7.232;2022-11-03T17:44:53;17.33;;;4.40;;
2972;SDS011;1496;51.404;7.232;2022-11-03T17:47:20;11.10;;;4.37;;
2972;SDS011;1496;51.404;7.232;2022-11-03T17:49:48;10.73;;;4.50;;
2972;SDS011;1496;51.404;7.232;2022-11-03T17:54:45;10.93;;;4.33;;
2972;SDS011;1496;51.404;7.232;2022-11-03T17:57:12;12.60;;;4.63;;
2972;SDS011;1496;51.404;7.232;2022-11-03T17:59:41;13.00;;;4.40;;
2972;SDS011;1496;51.404;7.232;2022-11-03T18:02:11;17.77;;;4.60;;
2972;SDS011;1496;51.404;7.232;2022-11-03T18:04:39;19.27;;;4.43;;
2972;SDS011;1496;51.404;7.232;2022-11-03T18:07:25;11.03;;;4.43;;
2972;SDS011;1496;51.404;7.232;2022-11-03T18:09:52;11.47;;;4.57;;
2972;SDS011;1496;51.404;7.232;2022-11-03T18:12:23;14.83;;;4.90;;
2972;SDS011;1496;51.404;7.232;2022-11-03T18:15:13;11.03;;;4.57;;
2972;SDS011;1496;51.404;7.232;2022-11-03T18:17:42;11.50;;;4.70;;
2972;SDS011;1496;51.404;7.232;2022-11-03T18:20:18;13.67;;;4.77;;
2972;SDS011;1496;51.404;7.232;2022-11-03T18:22:54;10.67;;;4.83;;
2972;SDS011;1496;51.404;7.232;2022-11-03T18:25:35;14.27;;;5.33;;
2972;SDS011;1496;51.404;7.232;2022-11-03T18:28:00;11.73;;;4.40;;
2972;SDS011;1496;51.404;7.232;2022-11-03T18:30:26;13.47;;;5.90;;
2972;SDS011;1496;51.404;7.232;2022-11-03T18:32:52;10.70;;;4.50;;
2972;SDS011;1496;51.404;7.232;2022-11-03T18:35:19;13.10;;;5.10;;
2972;SDS011;1496;51.404;7.232;2022-11-03T18:37:47;11.43;;;4.60;;
2972;SDS011;1496;51.404;7.232;2022-11-03T18:40:16;11.10;;;4.80;;
2972;SDS011;1496;51.404;7.232;2022-11-03T18:42:44;12.53;;;5.20;;
2972;SDS011;1496;51.404;7.232;2022-11-03T18:45:11;14.30;;;5.10;;
2972;SDS011;1496;51.404;7.232;2022-11-03T18:47:39;9.10;;;4.87;;
2972;SDS011;1496;51.404;7.232;2022-11-03T18:50:05;9.83;;;4.90;;
2972;SDS011;1496;51.404;7.232;2022-11-03T18:52:39;9.33;;;4.93;;
2972;SDS011;1496;51.404;7.232;2022-11-03T18:55:09;10.50;;;5.30;;
2972;SDS011;1496;51.404;7.232;2022-11-03T18:57:36;10.60;;;6.83;;
2972;SDS011;1496;51.404;7.232;2022-11-03T19:00:12;6.40;;;4.27;;
2972;SDS011;1496;51.404;7.232;2022-11-03T19:02:43;8.07;;;4.70;;
2972;SDS011;1496;51.404;7.232;2022-11-03T19:05:11;11.67;;;5.23;;
2972;SDS011;1496;51.404;7.232;2022-11-03T19:07:38;6.57;;;5.07;;
2972;SDS011;1496;51.404;7.232;2022-11-03T19:10:07;6.47;;;4.40;;
2972;SDS011;1496;51.404;7.232;2022-11-03T19:12:35;7.57;;;4.80;;
2972;SDS011;1496;51.404;7.232;2022-11-03T19:15:01;4.93;;;4.40;;
2972;SDS011;1496;51.404;7.232;2022-11-03T19:17:27;6.40;;;4.37;;
2972;SDS011;1496;51.404;7.232;2022-11-03T19:19:57;6.47;;;4.40;;
2972;SDS011;1496;51.404;7.232;2022-11-03T19:22:23;7.47;;;4.30;;
2972;SDS011;1496;51.404;7.232;2022-11-03T19:24:50;5.37;;;3.87;;
2972;SDS011;1496;51.404;7.232;2022-11-03T19:27:17;8.23;;;4.97;;
2972;SDS011;1496;51.404;7.232;2022-11-03T19:29:46;4.90;;;4.20;;
2972;SDS011;1496;51.404;7.232;2022-11-03T19:32:20;11.00;;;3.70;;
2972;SDS011;1496;51.404;7.232;2022-11-03T19:34:56;9.27;;;4.60;;
2972;SDS011;1496;51.404;7.232;2022-11-03T19:37:28;6.63;;;4.30;;
2972;SDS011;1496;51.404;7.232;2022-11-03T19:39:56;8.57;;;3.87;;
2972;SDS011;1496;51.404;7.232;2022-11-03T19:42:22;7.13;;;3.63;;
2972;SDS011;1496;51.404;7.232;2022-11-03T19:44:52;6.60;;;4.00;;
2972;SDS011;1496;51.404;7.232;2022-11-03T19:47:28;6.70;;;4.63;;
2972;SDS011;1496;51.404;7.232;2022-11-03T19:49:59;13.17;;;5.17;;
2972;SDS011;1496;51.404;7.232;2022-11-03T19:52:29;6.30;;;4.60;;
2972;SDS011;1496;51.404;7.232;2022-11-03T19:54:59;8.10;;;4.60;;
2972;SDS011;1496;51.404;7.232;2022-11-03T19:57:26;16.60;;;4.90;;
2972;SDS011;1496;51.404;7.232;2022-11-03T19:59:52;14.80;;;5.27;;
2972;SDS011;1496;51.404;7.232;2022-11-03T20:02:23;11.03;;;4.93;;
2972;SDS011;1496;51.404;7.232;2022-11-03T20:04:50;7.60;;;5.33;;
2972;SDS011;1496;51.404;7.232;2022-11-03T20:07:16;6.93;;;4.60;;
2972;SDS011;1496;51.404;7.232;2022-11-03T20:09:42;6.53;;;4.40;;
2972;SDS011;1496;51.404;7.232;2022-11-03T20:12:09;5.90;;;4.50;;
2972;SDS011;1496;51.404;7.232;2022-11-03T20:14:40;4.93;;;4.10;;
2972;SDS011;1496;51.404;7.232;2022-11-03T20:17:12;5.67;;;4.30;;
2972;SDS011;1496;51.404;7.232;2022-11-03T20:19:40;6.30;;;4.50;;
2972;SDS011;1496;51.404;7.232;2022-11-03T20:22:13;5.60;;;4.80;;
2972;SDS011;1496;51.404;7.232;2022-11-03T20:24:44;6.77;;;4.80;;
2972;SDS011;1496;51.404;7.232;2022-11-03T20:27:12;11.20;;;5.00;;
2972;SDS011;1496;51.404;7.232;2022-11-03T20:29:40;11.60;;;4.60;;
2972;SDS011;1496;51.404;7.232;2022-11-03T20:32:08;8.00;;;4.83;;
2972;SDS011;1496;51.404;7.232;2022-11-03T20:34:36;8.83;;;4.77;;
2972;SDS011;1496;51.404;7.232;2022-11-03T20:37:04;6.70;;;4.63;;
2972;SDS011;1496;51.404;7.232;2022-11-03T20:39:38;5.50;;;4.27;;
2972;SDS011;1496;51.404;7.232;2022-11-03T20:42:04;7.03;;;4.17;;
2972;SDS011;1496;51.404;7.232;2022-11-03T20:44:30;5.60;;;4.63;;
2972;SDS011;1496;51.404;7.232;2022-11-03T20:46:55;6.27;;;3.80;;
2972;SDS011;1496;51.404;7.232;2022-11-03T20:49:21;4.27;;;3.27;;
2972;SDS011;1496;51.404;7.232;2022-11-03T20:51:47;8.43;;;3.93;;
2972;SDS011;1496;51.404;7.232;2022-11-03T20:54:21;5.30;;;4.03;;
2972;SDS011;1496;51.404;7.232;2022-11-03T20:56:47;4.67;;;4.00;;